Terminal Aerodrome Forecast
Issued by NWS

Home | Current Version | Previous Version | Text Only | Print | Product List | Glossary On
Versions: 1 2 3 4 5 6 7 8 9 10 11 12 13 14 15
000
FTUS45 KSLC 232334
TAFBCE
TAF
KBCE 232334Z 2400/2424 14007KT P6SM FEW200
     FM240200 26007KT P6SM SCT200
     FM241600 14010KT P6SM FEW200=

USA.gov is the U.S. government's official web portal to all federal, state and local government web resources and services.